Time;durP1;ratioP1;P1;durP2;ratioP2;P2;SDS_P1;SDS_P2;PMS_P1;PMS_P2;Temp;Humidity;BMP_temperature;BMP_pressure;BME280_temperature;BME280_humidity;BME280_pressure;Samples;Min_cycle;Max_cycle;Signal;HPM_P1;HPM_P2
2023/01/11 00:01:21;;;;;;;0.60;0.60;;;2.70;99.90;2.50;100653.00;;;;5044967;27;108340;-67
2023/01/11 00:03:47;;;;;;;0.90;0.80;;;2.70;99.90;2.50;100654.00;;;;5034791;27;111463;-67
2023/01/11 00:06:13;;;;;;;1.47;1.17;;;2.70;99.90;2.50;100640.00;;;;5037740;27;82880;-65
2023/01/11 00:08:38;;;;;;;1.80;0.90;;;2.80;99.90;2.50;100635.00;;;;5033618;27;109681;-65
2023/01/11 00:11:12;;;;;;;1.13;0.90;;;2.70;99.90;2.50;100648.00;;;;5037477;27;108511;-66
2023/01/11 00:13:38;;;;;;;5.17;1.20;;;2.70;99.90;2.50;100639.00;;;;5033534;27;83673;-65
2023/01/11 00:16:08;;;;;;;1.63;0.70;;;2.70;99.90;2.40;100634.00;;;;5031525;27;110683;-65
2023/01/11 00:18:35;;;;;;;1.73;1.33;;;2.70;99.90;2.40;100624.00;;;;5033566;27;83815;-65
2023/01/11 00:21:05;;;;;;;1.47;1.03;;;2.70;99.90;2.40;100630.00;;;;5034070;27;84297;-65
2023/01/11 00:23:32;;;;;;;1.87;1.27;;;2.70;99.90;2.40;100625.00;;;;5037956;27;83021;-67
2023/01/11 00:26:01;;;;;;;2.47;1.07;;;2.70;99.90;2.30;100625.00;;;;5036346;27;82985;-66
2023/01/11 00:28:27;;;;;;;3.33;1.10;;;3.50;99.90;2.30;100611.00;;;;5037178;27;98473;-65
2023/01/11 00:30:52;;;;;;;1.67;1.17;;;2.60;99.90;2.30;100612.00;;;;5032594;27;108360;-67
2023/01/11 00:33:18;;;;;;;1.90;1.50;;;2.60;99.90;2.30;100597.00;;;;5035389;27;112727;-66
2023/01/11 00:35:44;;;;;;;7.47;1.87;;;2.60;99.90;2.30;100598.00;;;;5033118;27;111676;-65
2023/01/11 00:38:42;;;;;;;3.43;1.40;;;2.50;99.90;2.30;100582.00;;;;5032663;27;110117;-67
2023/01/11 00:40:55;;;;;;;1.30;1.13;;;2.50;99.90;2.30;100590.00;;;;5034320;27;82812;-66
2023/01/11 00:48:49;;;;;;;3.23;1.97;;;2.50;99.90;2.30;100588.00;;;;5029461;27;82840;-64
2023/01/11 00:51:15;;;;;;;0.90;0.80;;;2.50;99.90;2.30;100586.00;;;;5031297;27;108803;-65
2023/01/11 00:53:40;;;;;;;3.20;1.27;;;2.50;99.90;2.20;100588.00;;;;5028970;27;111690;-65
2023/01/11 00:56:06;;;;;;;1.13;1.03;;;2.50;99.90;2.20;100574.00;;;;5031076;27;111689;-66
2023/01/11 00:58:32;;;;;;;1.77;1.57;;;2.40;99.90;2.20;100583.00;;;;5027455;27;110368;-67
2023/01/11 01:01:04;;;;;;;2.13;1.43;;;3.00;99.90;2.20;100572.00;;;;5035503;27;107412;-67
2023/01/11 01:03:30;;;;;;;1.40;1.17;;;2.40;99.90;2.30;100564.00;;;;5031943;27;103851;-67
2023/01/11 01:05:56;;;;;;;2.87;0.93;;;2.50;99.90;2.30;100555.00;;;;5036498;27;111499;-66
2023/01/11 01:08:21;;;;;;;2.90;2.17;;;3.50;99.90;2.30;100559.00;;;;5032810;27;111466;-66
2023/01/11 01:10:51;;;;;;;2.47;1.60;;;2.60;99.90;2.40;100566.00;;;;5042371;27;82600;-65
2023/01/11 01:16:11;;;;;;;8.50;1.50;;;2.70;99.90;2.50;100552.00;;;;4995465;27;82967;-67
2023/01/11 01:18:37;;;;;;;1.00;0.90;;;2.60;99.90;2.60;100556.00;;;;5030122;27;109414;-65
2023/01/11 01:21:02;;;;;;;1.23;1.10;;;2.70;99.90;2.60;100545.00;;;;5026847;27;109341;-65
2023/01/11 01:23:28;;;;;;;3.53;1.50;;;2.70;99.90;2.60;100547.00;;;;5034376;27;112535;-65
2023/01/11 01:25:53;;;;;;;1.77;1.33;;;2.90;99.90;2.70;100544.00;;;;5033353;27;112238;-65
2023/01/11 01:28:20;;;;;;;2.33;1.53;;;2.90;99.90;2.70;100541.00;;;;5029639;27;110106;-67
2023/01/11 01:30:53;;;;;;;2.60;1.63;;;2.90;99.90;2.70;100543.00;;;;5034003;27;82844;-67
2023/01/11 01:33:18;;;;;;;5.80;1.87;;;2.90;99.90;2.80;100534.00;;;;5029623;27;112670;-65
2023/01/11 01:35:44;;;;;;;1.63;1.17;;;3.00;99.90;2.90;100548.00;;;;5030178;27;83755;-66
2023/01/11 01:38:10;;;;;;;4.10;1.40;;;3.10;99.90;2.90;100546.00;;;;5030908;27;111047;-66
2023/01/11 01:40:41;;;;;;;2.37;1.33;;;4.00;99.90;3.00;100539.00;;;;5028402;27;108828;-66
2023/01/11 01:43:17;;;;;;;1.53;1.13;;;3.20;99.90;3.10;100540.00;;;;5024713;27;83194;-65
2023/01/11 01:45:42;;;;;;;1.60;1.23;;;3.30;99.90;3.10;100537.00;;;;5037062;27;83651;-65
2023/01/11 01:48:20;;;;;;;5.70;1.83;;;3.40;99.90;3.20;100530.00;;;;5034618;27;82544;-66
2023/01/11 01:50:54;;;;;;;5.00;1.80;;;3.30;99.90;3.20;100539.00;;;;5035083;27;103784;-66
2023/01/11 01:53:28;;;;;;;3.07;1.37;;;4.20;99.90;3.20;100524.00;;;;5027543;27;104762;-66
2023/01/11 01:56:00;;;;;;;4.27;2.00;;;3.40;99.90;3.30;100522.00;;;;5035385;27;83231;-65
2023/01/11 01:58:33;;;;;;;5.73;1.47;;;3.50;99.90;3.30;100527.00;;;;5028074;27;99585;-66
2023/01/11 02:01:45;;;;;;;3.57;2.00;;;3.50;99.90;3.30;100528.00;;;;5035297;27;99328;-67
2023/01/11 02:03:46;;;;;;;2.27;1.53;;;3.50;99.90;3.40;100518.00;;;;5032093;27;83484;-65
2023/01/11 02:06:12;;;;;;;2.00;1.20;;;3.60;99.90;3.40;100504.00;;;;5032108;27;113015;-65
2023/01/11 02:08:42;;;;;;;2.17;1.33;;;3.60;99.90;3.40;100502.00;;;;5028526;27;108777;-67
2023/01/11 02:11:28;;;;;;;4.70;1.83;;;3.70;99.90;3.40;100503.00;;;;5028651;27;92780;-67
2023/01/11 02:14:01;;;;;;;2.37;1.53;;;3.50;99.90;3.40;100502.00;;;;5031486;27;82721;-67
2023/01/11 02:16:27;;;;;;;5.10;1.40;;;3.60;99.90;3.40;100505.00;;;;5035211;27;104016;-65
2023/01/11 02:18:54;;;;;;;1.37;1.17;;;3.60;99.90;3.40;100491.00;;;;5037336;27;102535;-65
2023/01/11 02:21:31;;;;;;;3.17;1.63;;;3.60;99.90;3.50;100493.00;;;;5030947;27;99171;-66
2023/01/11 02:24:22;;;;;;;4.23;1.33;;;3.70;99.90;3.40;100488.00;;;;5029024;27;83732;-66
2023/01/11 02:27:42;;;;;;;2.07;0.93;;;3.60;99.90;3.40;100480.00;;;;5029287;27;82937;-65
2023/01/11 02:30:26;;;;;;;6.03;1.03;;;3.90;99.90;3.50;100471.00;;;;4993738;27;103893;-65
2023/01/11 02:33:39;;;;;;;2.83;1.43;;;3.70;99.90;3.40;100473.00;;;;5030293;27;91282;-67
2023/01/11 02:36:32;;;;;;;2.57;1.47;;;3.70;99.90;3.40;100473.00;;;;4964345;28;98724;-67
2023/01/11 02:39:18;;;;;;;1.20;1.10;;;3.80;99.90;3.40;100468.00;;;;5032173;27;106057;-66
2023/01/11 02:45:09;;;;;;;0.93;0.90;;;3.70;99.90;3.40;100464.00;;;;5029901;27;82263;-66
2023/01/11 02:47:56;;;;;;;2.23;1.23;;;3.60;99.90;3.40;100455.00;;;;5029465;27;84061;-65
2023/01/11 02:50:30;;;;;;;3.73;1.03;;;3.80;99.90;3.40;100449.00;;;;5030192;27;102202;-66
2023/01/11 02:53:17;;;;;;;1.30;1.13;;;3.60;99.90;3.40;100444.00;;;;5030090;27;98442;-65
2023/01/11 02:55:50;;;;;;;6.37;1.60;;;3.60;99.90;3.40;100438.00;;;;5033142;27;88253;-65
2023/01/11 02:58:19;;;;;;;1.30;1.13;;;4.10;99.90;3.40;100440.00;;;;5030253;27;83755;-65
2023/01/11 03:00:46;;;;;;;1.90;1.40;;;3.60;99.90;3.40;100436.00;;;;5031842;27;82874;-66
2023/01/11 03:03:23;;;;;;;4.60;1.80;;;3.60;99.90;3.40;100432.00;;;;5028930;27;96879;-66
2023/01/11 03:06:10;;;;;;;0.90;0.90;;;3.60;99.90;3.40;100415.00;;;;5030489;27;83210;-65
2023/01/11 03:09:08;;;;;;;1.80;1.63;;;3.70;99.90;3.40;100412.00;;;;5031534;27;83521;-65
2023/01/11 03:13:03;;;;;;;1.20;1.00;;;3.70;99.90;3.40;100407.00;;;;5032773;27;82761;-67
2023/01/11 03:15:20;;;;;;;2.23;1.03;;;3.70;99.90;3.50;100404.00;;;;5011332;27;84183;-66
2023/01/11 03:18:40;;;;;;;4.07;1.77;;;3.80;99.90;3.50;100399.00;;;;5029997;27;94502;-64
2023/01/11 03:21:38;;;;;;;4.57;1.63;;;3.80;99.90;3.60;100408.00;;;;5031645;27;83760;-65
2023/01/11 03:24:45;;;;;;;2.60;1.10;;;3.80;99.90;3.70;100394.00;;;;5013835;27;97430;-67
2023/01/11 03:27:34;;;;;;;3.30;1.83;;;3.90;99.90;3.80;100393.00;;;;5027986;27;82744;-66
2023/01/11 03:30:28;;;;;;;1.57;1.03;;;4.00;99.90;3.90;100381.00;;;;5034469;27;82501;-65
2023/01/11 03:33:12;;;;;;;1.33;1.23;;;4.20;99.90;3.90;100384.00;;;;5026160;27;83481;-67
2023/01/11 03:36:13;;;;;;;3.50;1.20;;;4.40;99.90;4.00;100387.00;;;;5027711;27;82671;-67
2023/01/11 03:38:57;;;;;;;1.70;1.03;;;4.20;99.90;4.00;100373.00;;;;5026276;27;94168;-65
2023/01/11 03:41:30;;;;;;;1.60;1.07;;;4.30;99.90;4.10;100365.00;;;;5026612;27;97823;-66
2023/01/11 03:43:58;;;;;;;1.83;1.43;;;4.90;99.90;4.20;100364.00;;;;5029906;27;84182;-65
2023/01/11 03:46:30;;;;;;;1.67;1.20;;;4.40;99.90;4.20;100376.00;;;;5025886;27;82858;-66
2023/01/11 03:49:04;;;;;;;2.87;1.70;;;5.00;99.90;4.30;100372.00;;;;5033192;27;96160;-67
2023/01/11 03:51:37;;;;;;;2.77;1.37;;;5.30;99.90;4.30;100375.00;;;;5025657;27;82689;-67
2023/01/11 03:54:06;;;;;;;2.73;1.73;;;4.50;99.90;4.30;100359.00;;;;5031736;27;108556;-67
2023/01/11 03:56:46;;;;;;;1.40;1.30;;;4.60;99.90;4.40;100368.00;;;;5032770;27;82924;-67
2023/01/11 03:59:12;;;;;;;1.90;1.23;;;4.60;99.90;4.40;100354.00;;;;5035044;27;100006;-67
2023/01/11 04:01:38;;;;;;;2.17;1.93;;;5.00;99.90;4.50;100350.00;;;;5038913;27;82765;-65
2023/01/11 04:04:04;;;;;;;4.53;1.73;;;4.90;99.90;4.50;100349.00;;;;5034643;27;113510;-65
2023/01/11 04:06:33;;;;;;;1.73;1.63;;;4.70;99.90;4.50;100348.00;;;;5036364;27;97852;-64
2023/01/11 04:08:58;;;;;;;4.07;1.37;;;4.70;99.90;4.50;100337.00;;;;5036355;27;83128;-65
2023/01/11 04:11:24;;;;;;;3.77;1.37;;;4.70;99.90;4.50;100336.00;;;;5038973;27;107448;-67
2023/01/11 04:13:50;;;;;;;2.37;1.77;;;5.50;99.90;4.50;100323.00;;;;5034871;27;112059;-65
2023/01/11 04:16:15;;;;;;;1.50;1.33;;;5.30;99.90;4.50;100314.00;;;;5038867;27;112382;-65
2023/01/11 04:18:41;;;;;;;1.70;1.23;;;4.70;99.90;4.50;100324.00;;;;5029873;27;111680;-66
2023/01/11 04:21:07;;;;;;;1.10;1.00;;;4.60;99.90;4.50;100308.00;;;;5038186;27;82858;-67
2023/01/11 04:23:32;;;;;;;2.10;1.30;;;4.90;99.90;4.50;100313.00;;;;5034268;27;112923;-67
2023/01/11 04:25:58;;;;;;;2.30;1.73;;;4.50;99.90;4.50;100322.00;;;;5035978;27;108257;-67
2023/01/11 04:28:24;;;;;;;3.70;1.50;;;5.30;99.90;4.50;100325.00;;;;5036713;27;110413;-67
2023/01/11 04:30:49;;;;;;;3.13;1.73;;;4.80;99.90;4.60;100326.00;;;;5034025;27;108826;-67
2023/01/11 04:33:15;;;;;;;2.70;1.73;;;4.70;99.90;4.60;100333.00;;;;5037840;27;111938;-67
2023/01/11 04:35:41;;;;;;;0.97;0.97;;;4.70;99.90;4.60;100325.00;;;;5034263;27;111952;-67
2023/01/11 04:38:06;;;;;;;2.30;1.50;;;4.80;99.90;4.60;100324.00;;;;5032287;27;87007;-65
2023/01/11 04:40:32;;;;;;;3.27;1.73;;;4.80;99.90;4.60;100321.00;;;;5036882;27;108672;-65
2023/01/11 04:43:01;;;;;;;2.73;1.67;;;4.90;99.90;4.70;100323.00;;;;5032099;27;112663;-65
2023/01/11 04:45:27;;;;;;;3.73;1.97;;;4.80;99.90;4.70;100321.00;;;;5031645;27;82594;-64
2023/01/11 04:47:55;;;;;;;1.60;1.50;;;4.80;99.90;4.70;100321.00;;;;5031104;27;82740;-66
2023/01/11 04:50:23;;;;;;;1.17;0.93;;;4.90;99.90;4.80;100322.00;;;;5032704;27;82644;-66
2023/01/11 04:52:49;;;;;;;1.93;1.47;;;5.00;99.90;4.80;100308.00;;;;5033193;27;83691;-67
2023/01/11 04:55:14;;;;;;;1.00;0.93;;;4.80;99.90;4.90;100318.00;;;;5035438;27;83653;-67
2023/01/11 04:57:42;;;;;;;1.43;0.90;;;5.00;99.90;4.90;100304.00;;;;5034685;27;102075;-66
2023/01/11 05:00:09;;;;;;;3.60;1.37;;;5.80;99.90;4.90;100310.00;;;;5027148;27;100093;-67
2023/01/11 05:02:39;;;;;;;2.37;1.43;;;5.10;99.90;4.90;100293.00;;;;5037479;27;84114;-65
2023/01/11 05:05:06;;;;;;;2.43;1.60;;;5.10;99.90;5.00;100286.00;;;;5033252;27;114102;-67
2023/01/11 05:07:32;;;;;;;1.37;1.27;;;5.10;99.90;5.00;100292.00;;;;5030909;27;99896;-66
2023/01/11 05:09:58;;;;;;;1.80;1.70;;;5.10;99.90;5.00;100288.00;;;;5045956;27;94212;-66
2023/01/11 05:12:24;;;;;;;4.10;1.97;;;5.20;99.90;5.00;100283.00;;;;5044181;27;112745;-65
2023/01/11 05:14:49;;;;;;;6.27;1.87;;;5.20;99.90;5.00;100270.00;;;;5043385;27;85460;-66
2023/01/11 05:17:15;;;;;;;2.97;2.00;;;5.20;99.90;5.00;100281.00;;;;5031584;27;92548;-65
2023/01/11 05:19:42;;;;;;;1.87;1.53;;;5.20;99.90;5.10;100275.00;;;;5031010;27;81813;-65
2023/01/11 05:22:08;;;;;;;2.63;1.40;;;5.20;99.90;5.10;100271.00;;;;5031860;27;83492;-67
2023/01/11 05:24:35;;;;;;;2.47;1.93;;;5.60;99.90;5.10;100271.00;;;;5036574;27;82933;-66
2023/01/11 05:27:00;;;;;;;1.97;1.47;;;5.30;99.90;5.10;100269.00;;;;5032934;27;83985;-67
2023/01/11 05:29:27;;;;;;;4.97;1.90;;;6.10;99.90;5.10;100271.00;;;;5035339;27;106993;-67
2023/01/11 05:31:53;;;;;;;1.40;1.30;;;5.20;99.90;5.10;100272.00;;;;5029567;27;84808;-67
2023/01/11 05:34:18;;;;;;;1.50;1.40;;;6.10;99.90;5.10;100275.00;;;;5026053;27;103818;-65
2023/01/11 05:36:45;;;;;;;1.47;1.00;;;5.30;99.90;5.10;100261.00;;;;5034775;27;109809;-67
2023/01/11 05:39:12;;;;;;;4.37;1.10;;;5.90;99.90;5.20;100261.00;;;;5034501;27;82713;-66
2023/01/11 05:41:38;;;;;;;8.97;2.10;;;5.30;99.90;5.20;100260.00;;;;5026824;27;83860;-66
2023/01/11 05:46:49;;;;;;;1.83;1.43;;;5.20;99.90;5.20;100252.00;;;;5032447;27;82599;-67
2023/01/11 05:49:15;;;;;;;2.87;1.80;;;5.30;99.90;5.20;100253.00;;;;5034731;27;94398;-67
2023/01/11 05:51:42;;;;;;;4.50;2.13;;;5.40;99.90;5.30;100252.00;;;;5034152;27;84741;-66
2023/01/11 05:54:12;;;;;;;2.30;2.10;;;5.30;99.90;5.30;100256.00;;;;5031322;27;83699;-66
2023/01/11 05:56:38;;;;;;;5.80;1.97;;;6.20;99.90;5.30;100259.00;;;;5036442;27;82663;-65
2023/01/11 05:59:04;;;;;;;2.63;1.33;;;5.40;99.90;5.30;100245.00;;;;5029753;27;82628;-65
2023/01/11 06:01:30;;;;;;;3.57;2.27;;;5.50;99.90;5.30;100243.00;;;;5048542;27;84742;-66
2023/01/11 06:03:56;;;;;;;2.77;1.23;;;5.50;99.90;5.30;100244.00;;;;5031769;27;101831;-67
2023/01/11 06:06:21;;;;;;;6.53;1.00;;;5.50;99.90;5.40;100242.00;;;;5032015;27;109032;-67
2023/01/11 06:08:47;;;;;;;6.70;1.70;;;5.50;99.90;5.40;100246.00;;;;5036053;27;107743;-68
2023/01/11 06:11:14;;;;;;;1.70;1.37;;;5.40;99.90;5.40;100244.00;;;;5029085;27;83117;-66
2023/01/11 06:13:39;;;;;;;2.50;1.83;;;6.30;99.90;5.40;100246.00;;;;5035978;27;83533;-66
2023/01/11 06:16:16;;;;;;;0.77;0.70;;;5.60;99.90;5.50;100243.00;;;;5034141;27;83728;-68
2023/01/11 06:18:45;;;;;;;1.67;1.10;;;6.20;99.90;5.50;100244.00;;;;5032486;27;83054;-67
2023/01/11 06:21:12;;;;;;;5.33;1.23;;;5.70;99.90;5.50;100252.00;;;;5034063;27;83671;-65
2023/01/11 06:23:44;;;;;;;4.30;1.90;;;5.60;99.90;5.60;100246.00;;;;5036439;27;83017;-67
2023/01/11 06:26:14;;;;;;;1.50;1.30;;;5.60;99.90;5.60;100246.00;;;;5018695;27;82810;-67
2023/01/11 06:28:40;;;;;;;1.33;1.23;;;6.60;99.90;5.60;100245.00;;;;5034696;27;82830;-65
2023/01/11 06:31:06;;;;;;;1.23;1.00;;;6.50;99.90;5.60;100240.00;;;;5033599;27;112882;-67
2023/01/11 06:33:32;;;;;;;1.73;1.30;;;6.60;99.90;5.60;100239.00;;;;5032617;27;83447;-65
2023/01/11 06:36:02;;;;;;;1.80;1.53;;;5.80;99.90;5.60;100235.00;;;;5032931;27;82962;-65
2023/01/11 06:38:27;;;;;;;3.67;1.43;;;5.80;99.90;5.70;100237.00;;;;5032672;27;82700;-65
2023/01/11 06:40:59;;;;;;;3.20;1.37;;;6.60;99.90;5.70;100234.00;;;;5034346;27;114061;-67
2023/01/11 06:43:26;;;;;;;2.70;1.37;;;5.80;99.90;5.70;100240.00;;;;5035910;27;83129;-65
2023/01/11 06:45:52;;;;;;;1.73;1.10;;;5.80;99.90;5.80;100241.00;;;;5032168;27;82997;-66
2023/01/11 06:48:20;;;;;;;2.00;1.47;;;5.80;99.90;5.80;100234.00;;;;5025071;27;92479;-66
2023/01/11 06:50:54;;;;;;;1.73;1.30;;;5.90;99.90;5.80;100241.00;;;;5037355;27;83270;-67
2023/01/11 06:53:20;;;;;;;2.53;1.60;;;5.90;99.90;5.80;100246.00;;;;5031916;27;82672;-67
2023/01/11 06:55:51;;;;;;;1.77;1.50;;;6.00;99.90;5.80;100239.00;;;;5031280;27;82577;-66
2023/01/11 06:58:18;;;;;;;3.10;1.03;;;5.90;99.90;5.90;100240.00;;;;5036033;27;81745;-66
2023/01/11 07:00:44;;;;;;;1.67;1.37;;;6.00;99.90;5.90;100253.00;;;;5033626;27;84103;-66
2023/01/11 07:03:12;;;;;;;1.53;1.40;;;6.70;99.90;5.90;100239.00;;;;5030621;27;82814;-66
2023/01/11 07:05:38;;;;;;;3.90;1.07;;;6.60;99.90;5.90;100243.00;;;;5029611;27;84676;-65
2023/01/11 07:08:04;;;;;;;2.43;1.40;;;6.00;99.90;5.90;100237.00;;;;5029506;27;82882;-65
2023/01/11 07:10:29;;;;;;;2.00;1.23;;;6.10;99.90;5.90;100247.00;;;;5027619;27;104649;-65
2023/01/11 07:12:55;;;;;;;1.40;1.00;;;6.10;99.90;6.00;100246.00;;;;5035413;27;100226;-65
2023/01/11 07:15:21;;;;;;;2.43;1.30;;;6.10;99.90;6.00;100254.00;;;;5027140;27;110498;-66
2023/01/11 07:17:52;;;;;;;2.20;1.00;;;6.90;99.90;6.00;100257.00;;;;5034843;27;82878;-68
2023/01/11 07:20:18;;;;;;;1.50;1.23;;;6.10;99.90;6.00;100251.00;;;;5032007;27;100519;-66
2023/01/11 07:22:44;;;;;;;5.57;1.20;;;6.10;99.90;6.00;100245.00;;;;5034209;27;82081;-68
2023/01/11 07:25:09;;;;;;;2.50;1.37;;;6.90;99.90;6.00;100248.00;;;;5029547;27;83029;-66
2023/01/11 07:27:35;;;;;;;1.77;1.37;;;6.20;99.90;6.00;100256.00;;;;5033377;27;103390;-65
2023/01/11 07:30:01;;;;;;;2.10;1.30;;;5.90;99.90;6.00;100250.00;;;;5038896;27;116028;-67
2023/01/11 07:32:28;;;;;;;1.90;1.20;;;6.90;99.90;6.10;100253.00;;;;5027427;27;107556;-66
2023/01/11 07:34:54;;;;;;;1.80;1.50;;;6.40;99.90;6.10;100241.00;;;;5038356;27;87933;-66
2023/01/11 07:37:21;;;;;;;2.20;1.20;;;6.20;99.90;6.10;100250.00;;;;5031112;27;84453;-65
2023/01/11 07:39:46;;;;;;;6.67;1.90;;;6.40;99.90;6.10;100251.00;;;;5030332;27;83031;-66
2023/01/11 07:44:56;;;;;;;1.20;1.00;;;6.30;99.90;6.10;100235.00;;;;5036943;27;82768;-66
2023/01/11 07:47:22;;;;;;;3.20;1.13;;;6.30;99.90;6.20;100238.00;;;;5031521;27;108337;-66
2023/01/11 07:49:48;;;;;;;1.67;1.03;;;7.00;99.90;6.20;100228.00;;;;5035642;27;97096;-66
2023/01/11 07:52:13;;;;;;;4.07;1.70;;;6.30;99.90;6.20;100224.00;;;;5031779;27;111681;-66
2023/01/11 07:54:39;;;;;;;3.13;1.10;;;7.10;99.90;6.20;100227.00;;;;5032411;27;109455;-67
2023/01/11 07:57:05;;;;;;;1.33;1.23;;;6.30;99.90;6.20;100244.00;;;;5032969;27;108772;-66
2023/01/11 07:59:30;;;;;;;4.43;1.40;;;6.90;99.90;6.20;100236.00;;;;5026720;27;113130;-66
2023/01/11 08:01:56;;;;;;;1.47;1.27;;;6.80;99.90;6.30;100245.00;;;;5034851;27;94919;-67
2023/01/11 08:04:22;;;;;;;6.60;1.50;;;6.80;99.90;6.30;100235.00;;;;5033280;27;108554;-65
2023/01/11 08:06:47;;;;;;;2.77;1.37;;;6.40;99.90;6.30;100231.00;;;;5035323;27;109708;-67
2023/01/11 08:09:13;;;;;;;2.90;1.80;;;7.10;99.90;6.30;100236.00;;;;5032141;27;112456;-66
2023/01/11 08:14:38;;;;;;;2.20;1.60;;;6.40;99.90;6.30;100231.00;;;;5032415;27;82762;-65
2023/01/11 08:17:10;;;;;;;1.63;1.27;;;6.50;99.90;6.30;100233.00;;;;5032390;27;82767;-66
2023/01/11 08:19:36;;;;;;;2.37;1.37;;;6.50;99.90;6.40;100228.00;;;;5033561;27;84924;-66
2023/01/11 08:22:01;;;;;;;1.27;1.13;;;6.40;99.90;6.30;100228.00;;;;5035393;27;84606;-67
2023/01/11 08:24:27;;;;;;;1.80;1.40;;;6.60;99.90;6.30;100224.00;;;;5036697;27;83128;-68
2023/01/11 08:26:53;;;;;;;2.67;1.27;;;6.90;99.90;6.40;100224.00;;;;5034696;27;82738;-65
2023/01/11 08:29:18;;;;;;;1.67;1.07;;;7.30;99.90;6.40;100229.00;;;;5036876;27;83225;-67
2023/01/11 08:31:46;;;;;;;1.97;1.30;;;6.50;99.90;6.40;100220.00;;;;5035537;27;112540;-66
2023/01/11 08:34:12;;;;;;;1.97;1.03;;;6.80;99.90;6.40;100209.00;;;;5031851;27;82922;-66
2023/01/11 08:36:38;;;;;;;1.90;1.33;;;6.70;99.90;6.40;100210.00;;;;5032679;27;95107;-65
2023/01/11 08:39:03;;;;;;;1.50;1.37;;;6.40;99.90;6.40;100206.00;;;;5033699;27;113112;-67
2023/01/11 08:41:31;;;;;;;1.17;1.07;;;6.40;99.90;6.40;100197.00;;;;5039655;27;83111;-66
2023/01/11 08:43:57;;;;;;;2.87;1.00;;;6.60;99.90;6.40;100217.00;;;;5030544;27;85320;-67
2023/01/11 08:46:23;;;;;;;1.43;1.10;;;6.50;99.90;6.40;100204.00;;;;5033943;27;108182;-65
2023/01/11 08:48:49;;;;;;;1.33;0.93;;;6.60;99.90;6.50;100197.00;;;;5036661;27;108216;-66
2023/01/11 08:51:15;;;;;;;1.67;1.00;;;7.00;99.90;6.50;100193.00;;;;5035413;27;82715;-66
2023/01/11 08:53:40;;;;;;;5.60;1.87;;;7.20;99.90;6.50;100207.00;;;;5032879;27;82774;-67
2023/01/11 08:56:07;;;;;;;0.90;0.90;;;7.20;99.90;6.50;100208.00;;;;5034117;27;108681;-65
2023/01/11 08:58:34;;;;;;;2.73;1.00;;;6.60;99.90;6.50;100203.00;;;;5035159;27;95711;-66
2023/01/11 09:01:01;;;;;;;11.20;1.73;;;6.50;99.90;6.50;100206.00;;;;5034219;27;82425;-67
2023/01/11 09:03:28;;;;;;;2.77;1.77;;;6.70;99.90;6.60;100215.00;;;;5033038;27;82758;-66
2023/01/11 09:05:55;;;;;;;2.67;1.07;;;6.70;99.90;6.60;100216.00;;;;5033917;27;83085;-65
2023/01/11 09:08:25;;;;;;;1.60;1.20;;;6.80;99.90;6.70;100208.00;;;;5031118;27;85171;-67
2023/01/11 09:10:51;;;;;;;1.93;0.93;;;6.80;99.90;6.60;100209.00;;;;5035799;27;97938;-65
2023/01/11 09:13:16;;;;;;;1.67;1.57;;;6.70;99.90;6.70;100206.00;;;;5034835;27;109390;-65
2023/01/11 09:15:45;;;;;;;0.83;0.83;;;6.80;99.90;6.70;100209.00;;;;5031290;27;109184;-66
2023/01/11 09:18:12;;;;;;;3.07;1.70;;;7.50;99.90;6.70;100209.00;;;;5045341;27;83777;-66
2023/01/11 09:20:37;;;;;;;2.83;1.70;;;6.80;99.90;6.80;100216.00;;;;5044365;27;82870;-65
2023/01/11 09:23:03;;;;;;;2.30;1.33;;;7.10;99.90;6.80;100208.00;;;;5045934;27;82822;-65
2023/01/11 09:25:29;;;;;;;1.90;1.43;;;6.90;99.90;6.80;100201.00;;;;5025056;27;96232;-66
2023/01/11 09:27:54;;;;;;;2.03;1.43;;;7.70;99.90;6.90;100204.00;;;;5028338;27;112838;-66
2023/01/11 09:30:22;;;;;;;4.00;1.10;;;7.70;99.90;6.90;100198.00;;;;5030795;27;83776;-67
2023/01/11 09:32:49;;;;;;;3.40;1.27;;;7.00;99.90;6.90;100196.00;;;;5025896;27;83749;-66
2023/01/11 09:35:16;;;;;;;2.93;1.10;;;7.00;99.90;7.00;100194.00;;;;5029278;27;82909;-66
2023/01/11 09:37:52;;;;;;;3.93;1.43;;;7.00;99.90;7.00;100195.00;;;;5030182;27;86312;-67
2023/01/11 09:40:33;;;;;;;5.73;1.57;;;7.10;99.90;7.10;100193.00;;;;5024273;27;82722;-66
2023/01/11 09:43:02;;;;;;;2.30;0.87;;;7.20;99.90;7.10;100190.00;;;;5023638;27;83079;-66
2023/01/11 09:45:32;;;;;;;1.37;1.03;;;7.20;99.90;7.10;100189.00;;;;5027111;27;82889;-67
2023/01/11 09:48:10;;;;;;;6.70;1.50;;;7.20;99.90;7.20;100187.00;;;;5025440;27;83032;-65
2023/01/11 09:50:42;;;;;;;1.40;1.17;;;7.60;99.90;7.20;100190.00;;;;5027345;27;83819;-67
2023/01/11 09:53:30;;;;;;;1.73;0.83;;;7.30;99.90;7.30;100178.00;;;;5025890;27;82458;-67
2023/01/11 09:55:59;;;;;;;1.97;1.20;;;7.40;99.90;7.30;100175.00;;;;5029748;27;83198;-67
2023/01/11 09:58:53;;;;;;;2.90;1.53;;;7.40;99.90;7.30;100164.00;;;;5026077;27;84152;-65
2023/01/11 10:01:54;;;;;;;2.33;1.03;;;7.40;99.90;7.40;100165.00;;;;5028365;27;84198;-67
2023/01/11 10:04:51;;;;;;;1.20;1.00;;;7.50;99.90;7.40;100154.00;;;;5028385;27;83079;-66
2023/01/11 10:07:27;;;;;;;1.37;0.90;;;7.60;99.90;7.50;100154.00;;;;5034494;27;82905;-67
2023/01/11 10:10:04;;;;;;;1.93;1.23;;;7.80;99.90;7.50;100152.00;;;;5035806;27;104920;-65
2023/01/11 10:12:55;;;;;;;1.47;0.90;;;7.70;99.90;7.50;100158.00;;;;5033611;27;83067;-67
2023/01/11 10:15:51;;;;;;;1.53;1.33;;;7.60;99.90;7.60;100149.00;;;;5026197;27;82979;-66
2023/01/11 10:18:47;;;;;;;6.17;1.23;;;7.70;99.90;7.60;100157.00;;;;5031029;27;83607;-68
2023/01/11 10:21:28;;;;;;;3.73;1.07;;;7.70;99.90;7.70;100149.00;;;;5028491;27;83151;-67
2023/01/11 10:24:06;;;;;;;1.53;1.10;;;7.80;99.90;7.70;100152.00;;;;5027175;27;83981;-67
2023/01/11 10:26:38;;;;;;;1.47;0.83;;;7.70;99.90;7.80;100145.00;;;;5027861;27;85088;-67
2023/01/11 10:34:55;;;;;;;1.07;0.70;;;7.90;99.90;7.90;100136.00;;;;5028273;27;82938;-67
2023/01/11 10:43:21;;;;;;;2.10;1.00;;;8.00;99.90;7.80;100126.00;;;;5026430;27;82806;-65
2023/01/11 10:46:09;;;;;;;2.87;1.30;;;8.00;99.90;7.80;100128.00;;;;5028904;27;83935;-66
2023/01/11 10:48:44;;;;;;;2.07;1.03;;;7.90;99.90;7.70;100125.00;;;;5027478;27;82909;-68
2023/01/11 10:51:28;;;;;;;4.13;1.23;;;8.00;99.90;7.70;100127.00;;;;5030696;27;82674;-67
2023/01/11 10:54:23;;;;;;;2.73;1.03;;;7.80;99.90;7.70;100134.00;;;;5029558;27;83338;-66
2023/01/11 10:57:27;;;;;;;2.40;0.97;;;7.70;99.90;7.60;100133.00;;;;5021686;27;83768;-65
2023/01/11 11:00:43;;;;;;;1.83;0.80;;;7.70;99.90;7.60;100135.00;;;;5032434;27;83000;-66
2023/01/11 11:03:50;;;;;;;2.87;1.30;;;7.70;99.90;7.60;100126.00;;;;4961679;27;83015;-68
2023/01/11 11:06:42;;;;;;;3.27;1.33;;;7.70;99.90;7.70;100118.00;;;;5030598;27;98124;-66
2023/01/11 11:09:28;;;;;;;1.30;0.97;;;7.80;99.90;7.70;100123.00;;;;5026450;27;103189;-67
2023/01/11 11:12:21;;;;;;;1.80;0.90;;;7.80;99.90;7.70;100108.00;;;;5029367;27;104444;-67
2023/01/11 11:14:57;;;;;;;3.70;1.10;;;7.80;99.90;7.70;100102.00;;;;5035735;27;83660;-65
2023/01/11 11:17:39;;;;;;;3.33;1.33;;;7.80;99.90;7.80;100099.00;;;;5035638;27;83524;-67
2023/01/11 11:20:20;;;;;;;0.73;0.70;;;7.90;99.90;7.80;100099.00;;;;5030679;27;82709;-65
2023/01/11 11:22:50;;;;;;;2.10;1.07;;;7.90;99.90;7.80;100086.00;;;;5033759;27;86353;-66
2023/01/11 11:25:26;;;;;;;1.43;0.83;;;7.90;99.90;7.80;100085.00;;;;5031098;27;90398;-65
2023/01/11 11:27:59;;;;;;;1.10;0.90;;;7.90;99.90;7.90;100083.00;;;;5031866;27;83648;-66
2023/01/11 11:30:30;;;;;;;1.53;0.70;;;8.30;99.90;7.90;100084.00;;;;5030115;27;93782;-66
2023/01/11 11:33:05;;;;;;;3.00;1.13;;;8.10;99.90;7.90;100085.00;;;;5028393;27;88244;-67
2023/01/11 11:35:44;;;;;;;0.77;0.77;;;8.00;99.90;7.90;100080.00;;;;5024868;27;100208;-66
2023/01/11 11:38:29;;;;;;;2.57;1.00;;;8.10;99.90;8.00;100088.00;;;;5033506;27;83931;-65
2023/01/11 11:41:18;;;;;;;2.50;0.97;;;8.10;99.90;8.00;100088.00;;;;5027096;27;82161;-67
2023/01/11 11:43:46;;;;;;;0.63;0.60;;;8.00;99.90;8.00;100083.00;;;;5033432;27;83019;-65
2023/01/11 11:46:15;;;;;;;1.50;1.10;;;8.10;99.90;8.00;100080.00;;;;5027776;27;82566;-66
2023/01/11 11:48:43;;;;;;;2.40;1.10;;;8.10;99.90;8.10;100077.00;;;;5028132;27;83965;-66
2023/01/11 11:51:20;;;;;;;0.90;0.90;;;8.10;99.90;8.10;100075.00;;;;5025979;27;102784;-66
2023/01/11 11:53:54;;;;;;;0.70;0.70;;;8.10;99.90;8.10;100076.00;;;;5024265;27;82762;-66